createdAt,value
2018-02-16T00:02:23.704Z,28.10
2018-02-16T00:04:52.114Z,30.60
2018-02-16T00:07:20.423Z,28.87
2018-02-16T00:09:48.736Z,30.77
2018-02-16T00:12:17.163Z,33.00
2018-02-16T00:14:45.755Z,34.10
2018-02-16T00:17:14.483Z,32.03
2018-02-16T00:19:42.843Z,34.43
2018-02-16T00:22:13.919Z,31.10
2018-02-16T00:24:42.925Z,26.97
2018-02-16T00:27:11.261Z,27.73
2018-02-16T00:29:40.144Z,24.37
2018-02-16T00:32:08.458Z,19.33
2018-02-16T00:34:37.000Z,19.93
2018-02-16T00:37:05.815Z,21.07
2018-02-16T00:39:34.133Z,21.87
2018-02-16T00:42:02.443Z,21.40
2018-02-16T00:44:30.792Z,21.70
2018-02-16T00:46:59.097Z,23.40
2018-02-16T00:49:28.001Z,22.20
2018-02-16T00:51:56.370Z,23.33
2018-02-16T00:54:24.760Z,24.60
2018-02-16T00:56:53.067Z,24.87
2018-02-16T00:59:21.488Z,25.57
2018-02-16T01:01:51.194Z,25.70
2018-02-16T01:04:19.509Z,22.97
2018-02-16T01:06:48.340Z,24.63
2018-02-16T01:09:16.649Z,21.60
2018-02-16T01:11:44.951Z,21.97
2018-02-16T01:14:13.688Z,21.63
2018-02-16T01:16:41.992Z,19.17
2018-02-16T01:19:10.295Z,22.73
2018-02-16T01:21:38.636Z,19.10
2018-02-16T01:24:08.044Z,22.23
2018-02-16T01:26:36.119Z,20.83
2018-02-16T01:29:04.245Z,21.83
2018-02-16T01:31:32.560Z,22.80
2018-02-16T01:34:01.078Z,24.23
2018-02-16T01:36:29.408Z,21.47
2018-02-16T01:38:57.760Z,21.47
2018-02-16T01:41:26.091Z,22.03
2018-02-16T01:43:54.399Z,21.53
2018-02-16T01:46:22.812Z,23.23
2018-02-16T01:48:51.120Z,22.10
2018-02-16T01:51:19.456Z,23.07
2018-02-16T01:53:48.772Z,24.60
2018-02-16T01:56:17.801Z,22.10
2018-02-16T01:58:46.123Z,23.10
2018-02-16T02:01:15.344Z,22.80
2018-02-16T02:03:43.652Z,23.47
2018-02-16T02:06:11.960Z,23.33
2018-02-16T02:08:40.558Z,22.83
2018-02-16T02:11:08.863Z,23.77
2018-02-16T02:13:37.385Z,22.43
2018-02-16T02:16:05.815Z,22.37
2018-02-16T02:18:34.132Z,23.10
2018-02-16T02:21:02.439Z,22.40
2018-02-16T02:23:30.887Z,22.60
2018-02-16T02:25:59.195Z,20.67
2018-02-16T02:28:28.634Z,19.40
2018-02-16T02:30:57.020Z,20.00
2018-02-16T02:33:25.372Z,22.60
2018-02-16T02:35:53.823Z,18.77
2018-02-16T02:38:22.263Z,19.23
2018-02-16T02:40:51.332Z,22.13
2018-02-16T02:43:19.644Z,20.37
2018-02-16T02:45:48.791Z,23.27
2018-02-16T02:48:17.095Z,20.30
2018-02-16T02:50:45.407Z,22.80
2018-02-16T02:53:13.756Z,19.93
2018-02-16T02:55:42.060Z,18.50
2018-02-16T02:58:11.091Z,19.30
2018-02-16T03:00:39.466Z,17.97
2018-02-16T03:03:07.527Z,23.70
2018-02-16T03:05:35.848Z,32.47
2018-02-16T03:08:05.704Z,20.50
2018-02-16T03:10:34.024Z,22.20
2018-02-16T03:13:02.631Z,19.80
2018-02-16T03:15:31.387Z,17.70
2018-02-16T03:17:59.699Z,16.80
2018-02-16T03:20:28.039Z,17.80
2018-02-16T03:22:56.781Z,15.50
2018-02-16T03:25:25.873Z,16.47
2018-02-16T03:27:54.709Z,15.50
2018-02-16T03:30:23.124Z,20.37
2018-02-16T03:32:51.438Z,24.27
2018-02-16T03:35:19.816Z,53.17
2018-02-16T03:37:48.124Z,19.60
2018-02-16T03:40:17.143Z,19.57
2018-02-16T03:42:45.504Z,23.70
2018-02-16T03:45:13.816Z,24.10
2018-02-16T03:47:42.128Z,22.57
2018-02-16T03:50:10.467Z,23.10
2018-02-16T03:52:38.772Z,22.93
2018-02-16T03:55:07.083Z,20.93
2018-02-16T03:57:35.731Z,21.83
2018-02-16T04:00:04.039Z,21.50
2018-02-16T04:02:32.379Z,20.60
2018-02-16T04:05:00.715Z,18.50
2018-02-16T04:07:29.032Z,18.43
2018-02-16T04:09:58.116Z,18.47
2018-02-16T04:12:27.251Z,15.47
2018-02-16T04:14:55.555Z,15.77
2018-02-16T04:17:23.872Z,12.73
2018-02-16T04:19:52.216Z,12.27
2018-02-16T04:22:20.516Z,12.00
2018-02-16T04:24:49.978Z,12.80
2018-02-16T04:27:18.291Z,11.40
2018-02-16T04:29:46.600Z,11.33
2018-02-16T04:32:15.807Z,12.40
2018-02-16T04:34:44.116Z,10.97
2018-02-16T04:37:12.419Z,15.40
2018-02-16T04:39:40.780Z,18.57
2018-02-16T04:42:09.119Z,16.23
2018-02-16T04:44:37.560Z,16.40
2018-02-16T04:47:05.929Z,15.70
2018-02-16T04:49:34.239Z,16.73
2018-02-16T04:52:03.314Z,16.00
2018-02-16T04:54:32.040Z,16.30
2018-02-16T04:57:00.347Z,14.00
2018-02-16T04:59:28.663Z,16.23
2018-02-16T05:01:57.040Z,14.23
2018-02-16T05:04:26.123Z,12.63
2018-02-16T05:06:54.434Z,12.60
2018-02-16T05:09:24.144Z,12.50
2018-02-16T05:11:52.520Z,13.30
2018-02-16T05:14:20.826Z,11.17
2018-02-16T05:16:49.159Z,12.00
2018-02-16T05:19:18.514Z,11.97
2018-02-16T05:21:46.828Z,11.20
2018-02-16T05:24:18.805Z,10.80
2018-02-16T05:26:47.728Z,8.93
2018-02-16T05:29:16.219Z,9.80
2018-02-16T05:31:44.568Z,10.50
2018-02-16T05:34:13.913Z,10.13
2018-02-16T05:36:42.223Z,10.80
2018-02-16T05:39:10.575Z,10.23
2018-02-16T05:41:39.903Z,9.33
2018-02-16T05:44:08.903Z,8.80
2018-02-16T05:46:37.795Z,8.43
2018-02-16T05:49:06.125Z,8.60
2018-02-16T05:51:34.428Z,7.73
2018-02-16T05:54:02.915Z,8.60
2018-02-16T05:56:31.240Z,7.87
2018-02-16T05:58:59.557Z,8.50
2018-02-16T06:01:27.904Z,8.30
2018-02-16T06:03:56.847Z,9.43
2018-02-16T06:06:25.147Z,9.07
2018-02-16T06:08:53.516Z,10.20
2018-02-16T06:11:21.823Z,8.97
2018-02-16T06:13:50.445Z,8.57
2018-02-16T06:16:18.807Z,11.10
2018-02-16T06:18:47.119Z,8.03
2018-02-16T06:21:15.428Z,9.43
2018-02-16T06:23:44.741Z,10.00
2018-02-16T06:26:13.618Z,10.93
2018-02-16T06:28:42.503Z,10.37
2018-02-16T06:31:11.637Z,12.03
2018-02-16T06:33:39.952Z,12.13
2018-02-16T06:36:08.264Z,10.63
2018-02-16T06:38:36.712Z,13.10
2018-02-16T06:41:05.019Z,12.20
2018-02-16T06:43:33.327Z,10.30
2018-02-16T06:46:01.675Z,8.93
2018-02-16T06:48:29.976Z,8.47
2018-02-16T06:50:59.045Z,9.63
2018-02-16T06:53:28.255Z,11.10
2018-02-16T06:55:56.569Z,10.50
2018-02-16T06:58:25.145Z,9.37
2018-02-16T07:00:53.792Z,9.87
2018-02-16T07:03:22.141Z,11.53
2018-02-16T07:05:50.415Z,10.07
2018-02-16T07:08:18.780Z,10.10
2018-02-16T07:10:47.084Z,9.80
2018-02-16T07:13:16.155Z,9.83
2018-02-16T07:15:44.513Z,8.90
2018-02-16T07:18:12.812Z,7.83
2018-02-16T07:20:41.607Z,8.80
2018-02-16T07:23:09.972Z,7.30
2018-02-16T07:25:38.284Z,7.80
2018-02-16T07:28:06.588Z,7.23
2018-02-16T07:30:35.523Z,8.03
2018-02-16T07:33:03.827Z,6.73
2018-02-16T07:35:32.904Z,6.60
2018-02-16T07:38:01.268Z,7.30
2018-02-16T07:40:29.583Z,7.30
2018-02-16T07:42:57.925Z,6.23
2018-02-16T07:45:26.376Z,8.23
2018-02-16T07:47:54.687Z,8.30
2018-02-16T07:50:23.007Z,8.30
2018-02-16T07:52:51.376Z,7.50
2018-02-16T07:55:19.700Z,7.30
2018-02-16T07:57:48.029Z,9.40
2018-02-16T08:00:16.367Z,7.97
2018-02-16T08:02:44.673Z,8.97
2018-02-16T08:05:12.981Z,6.43
2018-02-16T08:07:41.344Z,7.50
2018-02-16T08:10:10.416Z,7.13
2018-02-16T08:12:38.711Z,5.70
2018-02-16T08:15:07.816Z,6.20
2018-02-16T08:17:36.131Z,6.43
2018-02-16T08:20:04.431Z,5.13
2018-02-16T08:22:32.775Z,4.80
2018-02-16T08:25:01.081Z,5.70
2018-02-16T08:27:29.296Z,5.20
2018-02-16T08:29:57.647Z,5.03
2018-02-16T08:32:25.947Z,4.60
2018-02-16T08:34:55.007Z,3.80
2018-02-16T08:37:23.352Z,6.13
2018-02-16T08:39:51.655Z,4.37
2018-02-16T08:42:19.980Z,6.07
2018-02-16T08:44:48.326Z,4.87
2018-02-16T08:47:16.623Z,4.67
2018-02-16T08:49:45.756Z,4.57
2018-02-16T08:52:14.084Z,4.47
2018-02-16T08:54:42.389Z,4.40
2018-02-16T08:57:10.707Z,5.93
2018-02-16T08:59:39.081Z,3.97
2018-02-16T09:02:07.440Z,4.83
2018-02-16T09:04:35.743Z,4.23
2018-02-16T09:07:04.113Z,5.27
2018-02-16T09:09:32.424Z,4.90
2018-02-16T09:12:00.736Z,3.97
2018-02-16T09:14:29.113Z,5.20
2018-02-16T09:16:57.415Z,8.10
2018-02-16T09:19:25.717Z,8.33
2018-02-16T09:21:54.585Z,5.07
2018-02-16T09:24:22.891Z,7.90
2018-02-16T09:26:51.190Z,4.97
2018-02-16T09:29:19.309Z,3.40
2018-02-16T09:31:47.888Z,3.70
2018-02-16T09:34:16.196Z,3.03
2018-02-16T09:36:44.624Z,3.10
2018-02-16T09:39:19.424Z,3.47
2018-02-16T09:41:47.784Z,3.57
2018-02-16T09:44:16.287Z,2.87
2018-02-16T09:46:44.632Z,3.57
2018-02-16T09:49:12.991Z,4.00
2018-02-16T09:51:41.291Z,2.90
2018-02-16T09:54:10.212Z,3.67
2018-02-16T09:56:38.559Z,2.90
2018-02-16T09:59:06.855Z,2.63
2018-02-16T10:01:35.151Z,3.37
2018-02-16T10:04:03.588Z,3.03
2018-02-16T10:06:31.891Z,3.60
2018-02-16T10:09:00.195Z,2.30
2018-02-16T10:11:29.401Z,2.73
2018-02-16T10:13:57.716Z,3.50
2018-02-16T10:16:26.408Z,4.27
2018-02-16T10:18:54.877Z,4.27
2018-02-16T10:21:23.180Z,4.00
2018-02-16T10:23:51.495Z,4.83
2018-02-16T10:26:20.616Z,6.13
2018-02-16T10:28:48.919Z,6.13
2018-02-16T10:31:17.226Z,4.10
2018-02-16T10:33:46.373Z,4.63
2018-02-16T10:36:14.720Z,4.73
2018-02-16T10:38:43.536Z,5.63
2018-02-16T10:41:11.872Z,4.97
2018-02-16T10:43:40.188Z,4.67
2018-02-16T10:46:08.504Z,4.80
2018-02-16T10:48:36.624Z,4.70
2018-02-16T10:51:04.940Z,5.20
2018-02-16T10:53:33.508Z,6.20
2018-02-16T10:56:01.899Z,4.63
2018-02-16T10:58:30.830Z,3.47
2018-02-16T11:01:04.654Z,3.60
2018-02-16T11:03:33.285Z,4.10
2018-02-16T11:06:01.867Z,4.53
2018-02-16T11:21:52.215Z,3.07
2018-02-16T11:24:20.572Z,4.60
2018-02-16T11:26:49.651Z,3.90
2018-02-16T11:29:17.980Z,4.90
2018-02-16T11:31:47.427Z,4.53
2018-02-16T11:34:15.731Z,3.80
2018-02-16T11:36:44.324Z,4.43
2018-02-16T11:39:12.673Z,5.13
2018-02-16T11:41:40.979Z,4.60
2018-02-16T11:44:10.052Z,4.10
2018-02-16T11:46:38.390Z,4.10
2018-02-16T11:49:06.869Z,4.70
2018-02-16T11:51:35.184Z,3.97
2018-02-16T11:54:03.560Z,4.33
2018-02-16T11:56:31.873Z,4.33
2018-02-16T11:59:00.187Z,3.73
2018-02-16T12:01:28.536Z,5.03
2018-02-16T12:03:56.839Z,4.53
2018-02-16T12:06:25.144Z,5.90
2018-02-16T12:08:53.508Z,5.03
2018-02-16T12:11:21.810Z,5.10
2018-02-16T12:13:50.119Z,6.63
2018-02-16T12:16:18.475Z,7.47
2018-02-16T12:18:47.547Z,8.27
2018-02-16T12:21:15.847Z,7.13
2018-02-16T12:23:44.949Z,6.77
2018-02-16T12:26:14.023Z,5.13
2018-02-16T12:28:42.336Z,6.00
2018-02-16T12:31:10.691Z,6.50
2018-02-16T12:33:39.132Z,5.53
2018-02-16T12:36:07.764Z,5.57
2018-02-16T12:38:36.688Z,6.60
2018-02-16T12:41:05.019Z,5.30
2018-02-16T12:43:33.324Z,5.73
2018-02-16T12:46:01.761Z,4.97
2018-02-16T12:48:30.064Z,4.80
2018-02-16T12:50:58.376Z,6.40
2018-02-16T12:53:26.815Z,5.30
2018-02-16T12:55:55.120Z,5.80
2018-02-16T12:58:23.451Z,5.70
2018-02-16T13:00:51.800Z,5.30
2018-02-16T13:03:20.127Z,4.83
2018-02-16T13:05:48.658Z,5.33
2018-02-16T13:08:17.140Z,5.77
2018-02-16T13:10:46.099Z,5.60
2018-02-16T13:13:15.183Z,6.30
2018-02-16T13:15:44.315Z,5.30
2018-02-16T13:18:13.003Z,5.83
2018-02-16T13:20:41.318Z,6.47
2018-02-16T13:23:09.640Z,6.60
2018-02-16T13:25:38.073Z,7.40
2018-02-16T13:28:06.386Z,6.43
2018-02-16T13:30:34.771Z,5.27
2018-02-16T13:33:03.879Z,5.70
2018-02-16T13:35:32.227Z,5.60
2018-02-16T13:38:00.883Z,6.00
2018-02-16T13:40:29.201Z,6.63
2018-02-16T13:42:57.524Z,6.20
2018-02-16T13:45:25.908Z,5.43
2018-02-16T13:47:54.312Z,6.73
2018-02-16T13:50:23.287Z,7.60
2018-02-16T13:52:52.455Z,5.77
2018-02-16T13:55:20.803Z,5.97
2018-02-16T13:57:49.148Z,5.50
2018-02-16T14:00:18.679Z,4.80
2018-02-16T14:02:46.827Z,4.43
2018-02-16T14:05:15.432Z,5.63
2018-02-16T14:07:43.750Z,5.57
2018-02-16T14:10:11.916Z,4.90
2018-02-16T14:12:40.282Z,5.80
2018-02-16T14:15:08.600Z,6.50
2018-02-16T14:17:36.959Z,6.57
2018-02-16T14:20:06.095Z,6.20
2018-02-16T14:22:34.216Z,7.93
2018-02-16T14:25:02.581Z,5.33
2018-02-16T14:27:31.659Z,7.47
2018-02-16T14:30:00.016Z,6.10
2018-02-16T14:32:28.339Z,5.00
2018-02-16T14:34:56.670Z,5.53
2018-02-16T14:37:25.640Z,5.50
2018-02-16T14:39:54.499Z,5.70
2018-02-16T14:42:23.588Z,5.17
2018-02-16T14:44:52.668Z,6.30
2018-02-16T14:47:21.104Z,6.07
2018-02-16T14:49:49.444Z,7.40
2018-02-16T14:52:18.519Z,5.47
2018-02-16T14:54:46.943Z,5.23
2018-02-16T14:57:15.088Z,5.90
2018-02-16T14:59:43.395Z,6.37
2018-02-16T15:02:11.467Z,5.77
2018-02-16T15:04:39.894Z,6.53
2018-02-16T15:07:08.182Z,6.20
2018-02-16T15:09:37.301Z,6.13
2018-02-16T15:12:06.733Z,5.80
2018-02-16T15:14:35.148Z,5.40
2018-02-16T15:17:03.263Z,7.97
2018-02-16T15:19:32.123Z,9.90
2018-02-16T15:22:00.436Z,6.03
2018-02-16T15:24:28.752Z,7.40
2018-02-16T15:26:57.108Z,8.17
2018-02-16T15:29:25.467Z,6.20
2018-02-16T15:31:53.580Z,6.83
2018-02-16T15:34:21.793Z,8.57
2018-02-16T15:36:50.113Z,6.67
2018-02-16T15:39:18.434Z,7.87
2018-02-16T15:41:46.547Z,6.90
2018-02-16T15:44:14.868Z,7.00
2018-02-16T15:46:43.183Z,11.10
2018-02-16T15:49:11.523Z,7.33
2018-02-16T15:51:40.487Z,9.00
2018-02-16T15:54:08.793Z,8.87
2018-02-16T15:56:37.127Z,8.83
2018-02-16T15:59:05.477Z,12.00
2018-02-16T16:01:34.556Z,10.20
2018-02-16T16:04:02.915Z,8.70
2018-02-16T16:06:31.866Z,9.17
2018-02-16T16:09:00.196Z,9.67
2018-02-16T16:11:28.539Z,9.90
2018-02-16T16:13:57.928Z,11.07
2018-02-16T16:16:26.340Z,9.30
2018-02-16T16:18:54.673Z,13.17
2018-02-16T16:21:23.003Z,10.67
2018-02-16T16:23:51.376Z,11.70
2018-02-16T16:26:19.691Z,14.90
2018-02-16T16:28:48.435Z,11.10
2018-02-16T16:31:17.704Z,10.20
2018-02-16T16:33:46.008Z,8.97
2018-02-16T16:36:14.376Z,11.13
2018-02-16T16:38:42.684Z,12.57
2018-02-16T16:41:10.987Z,17.50
2018-02-16T16:43:39.880Z,15.97
2018-02-16T16:46:08.198Z,13.40
2018-02-16T16:48:36.512Z,14.93
2018-02-16T16:51:04.951Z,12.30
2018-02-16T16:53:33.261Z,12.70
2018-02-16T16:56:01.599Z,16.53
2018-02-16T16:58:29.980Z,17.80
2018-02-16T17:00:58.276Z,16.80
2018-02-16T17:03:26.579Z,17.87
2018-02-16T17:05:54.955Z,20.13
2018-02-16T17:08:23.272Z,22.40
2018-02-16T17:10:51.736Z,23.70
2018-02-16T17:13:20.573Z,24.80
2018-02-16T17:15:49.231Z,22.10
2018-02-16T17:18:17.584Z,25.53
2018-02-16T17:20:45.775Z,25.30
2018-02-16T17:23:15.840Z,25.60
2018-02-16T17:25:45.537Z,21.07
2018-02-16T17:28:13.948Z,21.27
2018-02-16T17:30:42.252Z,23.43
2018-02-16T17:33:13.596Z,23.17
2018-02-16T17:35:41.918Z,20.80
2018-02-16T17:38:10.226Z,24.60
2018-02-16T17:40:38.692Z,22.50
2018-02-16T17:43:07.571Z,25.70
2018-02-16T17:45:36.576Z,25.80
2018-02-16T17:48:05.383Z,31.93
2018-02-16T17:50:34.686Z,28.67
2018-02-16T17:53:03.903Z,36.47
2018-02-16T17:55:45.294Z,37.40
2018-02-16T17:58:13.920Z,38.57
2018-02-16T18:00:43.355Z,39.10
2018-02-16T18:03:11.864Z,37.13
2018-02-16T18:05:40.959Z,35.47
2018-02-16T18:08:10.044Z,40.57
2018-02-16T18:10:38.442Z,36.87
2018-02-16T18:13:06.744Z,38.30
2018-02-16T18:15:35.057Z,38.87
2018-02-16T18:18:03.423Z,27.87
2018-02-16T18:20:31.728Z,35.50
2018-02-16T18:23:00.036Z,34.07
2018-02-16T18:25:28.553Z,34.47
2018-02-16T18:27:56.876Z,34.30
2018-02-16T18:30:25.216Z,36.87
2018-02-16T18:32:53.565Z,30.60
2018-02-16T18:35:21.883Z,31.10
2018-02-16T18:37:50.223Z,34.00
2018-02-16T18:40:18.580Z,33.43
2018-02-16T18:42:46.898Z,34.30
2018-02-16T18:45:15.627Z,29.20
2018-02-16T18:47:44.826Z,28.83
2018-02-16T18:50:13.903Z,31.30
2018-02-16T18:52:42.256Z,32.13
2018-02-16T18:55:10.575Z,39.10
2018-02-16T18:57:38.885Z,38.67
2018-02-16T19:00:08.036Z,39.47
2018-02-16T19:02:36.395Z,34.80
2018-02-16T19:05:07.677Z,34.13
2018-02-16T19:07:36.020Z,33.40
2018-02-16T19:10:04.332Z,34.80
2018-02-16T19:12:32.530Z,33.87
2018-02-16T19:15:00.780Z,34.10
2018-02-16T19:17:29.088Z,38.03
2018-02-16T19:19:57.875Z,39.43
2018-02-16T19:22:26.197Z,39.37
2018-02-16T19:24:54.775Z,35.90
2018-02-16T19:27:23.326Z,32.73
2018-02-16T19:29:51.664Z,36.70
2018-02-16T19:32:20.548Z,35.10
2018-02-16T19:34:49.312Z,41.17
2018-02-16T19:37:18.367Z,39.60
2018-02-16T19:39:46.808Z,40.40
2018-02-16T19:42:15.969Z,42.37
2018-02-16T19:44:44.316Z,44.17
2018-02-16T19:47:13.299Z,40.27
2018-02-16T19:49:41.652Z,40.10
2018-02-16T19:52:13.809Z,40.03
2018-02-16T19:54:46.992Z,34.93
2018-02-16T19:57:16.125Z,33.67
2018-02-16T19:59:44.548Z,35.53
2018-02-16T20:02:13.191Z,38.80
2018-02-16T20:04:41.972Z,37.70
2018-02-16T20:07:10.347Z,37.30
2018-02-16T20:09:40.887Z,37.00
2018-02-16T20:12:09.256Z,43.87
2018-02-16T20:14:38.010Z,46.07
2018-02-16T20:17:06.544Z,46.20
2018-02-16T20:19:34.864Z,45.27
2018-02-16T20:22:04.681Z,43.57
2018-02-16T20:24:33.219Z,43.60
2018-02-16T20:27:02.050Z,45.47
2018-02-16T20:29:31.879Z,46.50
2018-02-16T20:32:01.027Z,55.10
2018-02-16T20:34:30.113Z,48.87
2018-02-16T20:36:59.330Z,53.77
2018-02-16T20:39:27.754Z,50.08
2018-02-16T20:41:56.073Z,49.60
2018-02-16T20:44:24.384Z,47.53
2018-02-16T20:46:53.361Z,49.60
2018-02-16T20:49:21.667Z,47.53
2018-02-16T20:51:50.125Z,47.27
2018-02-16T20:54:19.059Z,52.58
2018-02-16T20:56:48.100Z,50.45
2018-02-16T20:59:16.416Z,52.53
2018-02-16T21:01:45.146Z,53.67
2018-02-16T21:04:13.541Z,55.42
2018-02-16T21:06:42.016Z,61.87
2018-02-16T21:09:10.468Z,58.03
2018-02-16T21:11:38.788Z,57.85
2018-02-16T21:14:07.108Z,59.50
2018-02-16T21:16:35.508Z,53.27
2018-02-16T21:19:03.840Z,51.87
2018-02-16T21:21:32.173Z,55.75
2018-02-16T21:24:00.531Z,52.42
2018-02-16T21:26:28.913Z,52.47
2018-02-16T21:28:57.223Z,51.40
2018-02-16T21:31:25.617Z,50.80
2018-02-16T21:33:53.903Z,51.60
2018-02-16T21:36:22.983Z,56.47
2018-02-16T21:38:51.307Z,51.88
2018-02-16T21:41:19.662Z,54.40
2018-02-16T21:43:48.264Z,59.38
2018-02-16T21:46:16.645Z,54.23
2018-02-16T21:48:45.012Z,51.47
2018-02-16T21:51:13.476Z,58.33
2018-02-16T21:53:41.982Z,50.45
2018-02-16T21:56:10.285Z,55.30
2018-02-16T21:58:40.104Z,55.12
2018-02-16T22:01:09.232Z,55.47
2018-02-16T22:03:37.552Z,59.20
2018-02-16T22:06:05.909Z,56.37
2018-02-16T22:08:34.932Z,55.92
2018-02-16T22:11:03.416Z,62.25
2018-02-16T22:13:32.588Z,56.35
2018-02-16T22:16:01.381Z,62.95
2018-02-16T22:18:29.744Z,57.67
2018-02-16T22:20:59.213Z,56.97
2018-02-16T22:23:28.508Z,55.83
2018-02-16T22:25:56.839Z,52.50
2018-02-16T22:28:25.164Z,53.95
2018-02-16T22:30:54.311Z,54.85
2018-02-16T22:33:24.083Z,58.25
2018-02-16T22:35:52.961Z,59.03
2018-02-16T22:38:21.352Z,53.75
2018-02-16T22:40:50.461Z,55.00
2018-02-16T22:43:19.600Z,56.83
2018-02-16T22:45:48.524Z,58.87
2018-02-16T22:48:17.612Z,58.53
2018-02-16T22:50:45.976Z,61.47
2018-02-16T22:53:14.300Z,56.15
2018-02-16T22:55:42.696Z,62.88
2018-02-16T22:58:11.021Z,72.85
2018-02-16T23:00:39.350Z,67.10
2018-02-16T23:03:07.707Z,63.17
2018-02-16T23:05:36.043Z,63.00
2018-02-16T23:08:04.428Z,55.35
2018-02-16T23:10:32.761Z,59.22
2018-02-16T23:13:01.083Z,57.42
2018-02-16T23:15:29.431Z,59.13
2018-02-16T23:17:57.760Z,56.15
2018-02-16T23:20:26.119Z,56.95
2018-02-16T23:22:54.435Z,53.45
2018-02-16T23:25:23.304Z,56.00
2018-02-16T23:27:52.395Z,56.90
2018-02-16T23:30:20.739Z,54.53
2018-02-16T23:32:49.129Z,63.83
2018-02-16T23:35:17.455Z,61.15
2018-02-16T23:37:46.460Z,60.78
2018-02-16T23:40:15.211Z,62.83
2018-02-16T23:42:44.249Z,63.53
2018-02-16T23:45:12.577Z,59.97
2018-02-16T23:47:40.956Z,64.30
2018-02-16T23:50:09.285Z,69.10
2018-02-16T23:52:37.774Z,67.75
2018-02-16T23:55:06.901Z,69.12
2018-02-16T23:57:35.272Z,69.50
